Terminal Aerodrome Forecast
Issued by NWS Paducah, KY

Home | Current Version | Previous Version | Text Only | Print | Product List | Glossary On
Versions: 1 2 3 4 5 6 7 8 9 10 11 12 13 14 15 16 17 18
799
FTUS43 KPAH 211720
TAFPAH
TAF
KPAH 211720Z 2118/2218 07007KT P6SM SCT025 OVC060
     FM212300 VRB03KT P6SM OVC020
     FM220400 00000KT 4SM BR OVC010
      TEMPO 2208/2212 2SM BR OVC008
     FM221500 19004KT P6SM SCT025 BKN040=

USA.gov is the U.S. government's official web portal to all federal, state and local government web resources and services.